createdAt,value
2022-08-26T00:00:53.012Z,22.45
2022-08-26T00:01:58.113Z,22.46
2022-08-26T00:03:04.111Z,22.42
2022-08-26T00:04:12.047Z,22.43
2022-08-26T00:05:15.982Z,22.44
2022-08-26T00:06:21.255Z,22.41
2022-08-26T00:07:26.333Z,22.44
2022-08-26T00:08:29.947Z,22.36
2022-08-26T00:09:38.916Z,22.35
2022-08-26T00:10:42.733Z,22.31
2022-08-26T00:11:47.200Z,22.23
2022-08-26T00:14:07.001Z,22.41
2022-08-26T00:15:14.998Z,22.24
2022-08-26T00:16:19.965Z,22.19
2022-08-26T00:17:25.912Z,22.22
2022-08-26T00:18:38.799Z,22.18
2022-08-26T00:19:46.178Z,22.20
2022-08-26T00:20:53.056Z,22.29
2022-08-26T00:21:58.481Z,22.26
2022-08-26T00:23:03.273Z,22.08
2022-08-26T00:24:06.712Z,22.07
2022-08-26T00:25:13.980Z,22.13
2022-08-26T00:26:21.436Z,22.09
2022-08-26T00:27:25.817Z,22.09
2022-08-26T00:28:28.979Z,22.09
2022-08-26T00:29:35.546Z,22.13
2022-08-26T00:30:40.251Z,22.12
2022-08-26T00:31:45.961Z,22.14
2022-08-26T00:32:51.416Z,22.07
2022-08-26T00:33:56.894Z,21.96
2022-08-26T00:35:00.592Z,21.97
2022-08-26T00:36:08.562Z,21.98
2022-08-26T00:37:21.428Z,21.93
2022-08-26T00:38:30.676Z,21.93
2022-08-26T00:39:34.768Z,21.97
2022-08-26T00:40:42.658Z,21.98
2022-08-26T00:41:50.730Z,21.90
2022-08-26T00:44:08.667Z,21.98
2022-08-26T00:45:13.537Z,21.88
2022-08-26T00:46:29.746Z,21.89
2022-08-26T00:47:39.735Z,21.82
2022-08-26T00:48:46.270Z,21.83
2022-08-26T00:49:58.472Z,21.76
2022-08-26T00:51:14.784Z,21.81
2022-08-26T00:52:23.318Z,21.79
2022-08-26T00:53:30.116Z,21.75
2022-08-26T00:54:42.254Z,21.70
2022-08-26T00:55:45.858Z,21.65
2022-08-26T00:57:00.812Z,21.75
2022-08-26T00:58:07.329Z,21.73
2022-08-26T00:59:13.626Z,21.68
2022-08-26T01:00:25.774Z,21.66
2022-08-26T01:01:30.658Z,21.70
2022-08-26T01:02:34.071Z,21.74
2022-08-26T01:03:39.126Z,21.69
2022-08-26T01:04:45.777Z,21.60
2022-08-26T01:05:56.717Z,21.60
2022-08-26T01:07:01.126Z,21.63
2022-08-26T01:08:05.606Z,21.56
2022-08-26T01:09:09.467Z,21.46
2022-08-26T01:10:20.496Z,21.49
2022-08-26T01:11:26.393Z,21.57
2022-08-26T01:12:33.795Z,21.51
2022-08-26T01:13:37.889Z,21.55
2022-08-26T01:14:43.652Z,21.59
2022-08-26T01:15:53.119Z,21.55
2022-08-26T01:16:57.286Z,21.51
2022-08-26T01:18:05.831Z,21.46
2022-08-26T01:19:22.264Z,21.45
2022-08-26T01:20:38.922Z,21.50
2022-08-26T01:21:55.105Z,21.56
2022-08-26T01:23:08.002Z,21.50
2022-08-26T01:24:14.060Z,21.40
2022-08-26T01:25:19.218Z,21.40
2022-08-26T01:26:34.800Z,21.43
2022-08-26T01:27:39.759Z,21.42
2022-08-26T01:28:44.461Z,21.32
2022-08-26T01:29:51.670Z,21.36
2022-08-26T01:31:00.569Z,21.41
2022-08-26T01:32:07.679Z,21.39
2022-08-26T01:33:14.881Z,21.32
2022-08-26T01:34:25.781Z,21.38
2022-08-26T01:35:31.907Z,21.33
2022-08-26T01:36:38.189Z,21.40
2022-08-26T01:37:43.366Z,21.38
2022-08-26T01:38:47.008Z,21.36
2022-08-26T01:39:54.457Z,21.31
2022-08-26T01:42:15.318Z,21.38
2022-08-26T01:43:24.667Z,21.26
2022-08-26T01:44:32.103Z,21.23
2022-08-26T01:45:40.762Z,21.23
2022-08-26T01:46:47.172Z,21.18
2022-08-26T01:47:56.550Z,21.17
2022-08-26T01:49:06.581Z,21.17
2022-08-26T01:50:18.061Z,21.12
2022-08-26T01:51:25.082Z,21.21
2022-08-26T01:52:32.185Z,21.15
2022-08-26T01:53:39.071Z,21.16
2022-08-26T01:54:46.336Z,21.16
2022-08-26T01:55:54.812Z,21.22
2022-08-26T01:56:59.449Z,21.12
2022-08-26T01:58:06.269Z,21.06
2022-08-26T01:59:14.349Z,21.05
2022-08-26T02:00:20.396Z,21.04
2022-08-26T02:01:29.129Z,21.08
2022-08-26T02:02:32.591Z,21.08
2022-08-26T02:03:39.318Z,21.06
2022-08-26T02:06:06.535Z,21.09
2022-08-26T02:07:15.672Z,21.04
2022-08-26T02:08:30.855Z,21.02
2022-08-26T02:09:41.401Z,20.95
2022-08-26T02:10:45.237Z,20.90
2022-08-26T02:11:51.215Z,20.93
2022-08-26T02:12:55.031Z,20.97
2022-08-26T02:14:06.360Z,20.93
2022-08-26T02:15:16.694Z,20.88
2022-08-26T02:16:24.453Z,20.89
2022-08-26T02:17:34.927Z,20.86
2022-08-26T02:18:42.107Z,20.85
2022-08-26T02:19:49.658Z,20.90
2022-08-26T02:20:55.398Z,20.91
2022-08-26T02:22:06.076Z,20.83
2022-08-26T02:23:12.911Z,20.80
2022-08-26T02:24:21.690Z,20.88
2022-08-26T02:25:52.652Z,20.85
2022-08-26T02:26:58.609Z,20.90
2022-08-26T02:28:04.487Z,20.84
2022-08-26T02:29:12.828Z,20.83
2022-08-26T02:30:28.371Z,20.85
2022-08-26T02:31:33.069Z,20.75
2022-08-26T02:32:36.982Z,20.67
2022-08-26T02:33:45.627Z,20.68
2022-08-26T02:34:48.212Z,20.67
2022-08-26T02:35:52.056Z,20.71
2022-08-26T02:37:03.690Z,20.67
2022-08-26T02:38:13.743Z,20.57
2022-08-26T02:39:22.032Z,20.57
2022-08-26T02:40:28.836Z,20.61
2022-08-26T02:41:33.395Z,20.68
2022-08-26T02:42:39.149Z,20.65
2022-08-26T02:43:44.169Z,20.65
2022-08-26T02:44:48.989Z,20.64
2022-08-26T02:45:53.172Z,20.64
2022-08-26T02:46:58.089Z,20.50
2022-08-26T02:48:09.313Z,20.55
2022-08-26T02:49:13.503Z,20.62
2022-08-26T02:50:20.799Z,20.58
2022-08-26T02:51:24.997Z,20.55
2022-08-26T02:52:29.232Z,20.49
2022-08-26T02:53:35.497Z,20.47
2022-08-26T02:54:41.878Z,20.52
2022-08-26T02:55:48.552Z,20.46
2022-08-26T02:56:52.778Z,20.38
2022-08-26T02:57:55.706Z,20.42
2022-08-26T02:58:59.970Z,20.46
2022-08-26T03:00:06.635Z,20.46
2022-08-26T03:01:22.463Z,20.47
2022-08-26T03:02:27.180Z,20.50
2022-08-26T03:03:31.437Z,20.39
2022-08-26T03:04:36.505Z,20.39
2022-08-26T03:05:44.350Z,20.47
2022-08-26T03:06:52.754Z,20.44
2022-08-26T03:07:56.225Z,20.43
2022-08-26T03:09:00.342Z,20.35
2022-08-26T03:10:08.351Z,20.35
2022-08-26T03:11:12.367Z,20.38
2022-08-26T03:12:15.559Z,20.35
2022-08-26T03:13:19.794Z,20.34
2022-08-26T03:14:23.655Z,20.39
2022-08-26T03:15:31.472Z,20.37
2022-08-26T03:16:38.906Z,20.31
2022-08-26T03:17:43.839Z,20.31
2022-08-26T03:18:52.388Z,20.34
2022-08-26T03:19:57.218Z,20.29
2022-08-26T03:21:14.043Z,20.34
2022-08-26T03:22:18.765Z,20.28
2022-08-26T03:23:24.864Z,20.32
2022-08-26T03:24:28.826Z,20.39
2022-08-26T03:25:33.338Z,20.41
2022-08-26T03:26:40.663Z,20.37
2022-08-26T03:27:45.755Z,20.25
2022-08-26T03:29:09.450Z,20.42
2022-08-26T03:30:34.211Z,20.42
2022-08-26T03:31:37.757Z,20.40
2022-08-26T03:32:43.753Z,20.42
2022-08-26T03:33:49.582Z,20.47
2022-08-26T03:34:57.441Z,20.44
2022-08-26T03:36:06.907Z,20.49
2022-08-26T03:37:12.834Z,20.46
2022-08-26T03:38:15.503Z,20.43
2022-08-26T03:39:19.348Z,20.44
2022-08-26T03:40:29.037Z,20.46
2022-08-26T03:41:31.371Z,20.48
2022-08-26T03:42:37.153Z,20.55
2022-08-26T03:43:41.278Z,20.56
2022-08-26T03:44:45.135Z,20.52
2022-08-26T03:45:51.795Z,20.47
2022-08-26T03:46:56.601Z,20.53
2022-08-26T03:48:03.141Z,20.57
2022-08-26T03:50:25.353Z,20.81
2022-08-26T03:51:31.196Z,20.68
2022-08-26T03:52:39.709Z,20.72
2022-08-26T03:53:44.088Z,20.69
2022-08-26T03:54:47.976Z,20.63
2022-08-26T03:55:53.302Z,20.67
2022-08-26T03:56:57.554Z,20.69
2022-08-26T03:58:03.401Z,20.72
2022-08-26T03:59:08.575Z,20.75
2022-08-26T04:00:18.418Z,20.77
2022-08-26T04:01:23.319Z,20.82
2022-08-26T04:02:28.846Z,20.82
2022-08-26T04:03:52.890Z,20.77
2022-08-26T04:04:57.153Z,20.76
2022-08-26T04:06:00.662Z,20.91
2022-08-26T04:07:04.553Z,20.91
2022-08-26T04:08:10.116Z,20.92
2022-08-26T04:09:17.099Z,20.98
2022-08-26T04:10:28.983Z,21.02
2022-08-26T04:11:38.293Z,20.97
2022-08-26T04:12:41.894Z,20.97
2022-08-26T04:13:48.249Z,21.09
2022-08-26T04:14:53.245Z,21.09
2022-08-26T04:15:58.220Z,21.04
2022-08-26T04:17:03.388Z,20.99
2022-08-26T04:18:07.470Z,20.99
2022-08-26T04:19:16.237Z,21.00
2022-08-26T04:20:20.464Z,21.03
2022-08-26T04:21:29.452Z,21.13
2022-08-26T04:22:33.414Z,21.12
2022-08-26T04:23:46.878Z,21.10
2022-08-26T04:24:41.883Z,21.19
2022-08-26T04:25:47.130Z,21.22
2022-08-26T04:26:52.202Z,21.28
2022-08-26T04:27:57.780Z,21.38
2022-08-26T04:29:03.384Z,21.30
2022-08-26T04:30:10.518Z,21.41
2022-08-26T04:31:16.830Z,21.41
2022-08-26T04:32:24.028Z,21.47
2022-08-26T04:33:32.259Z,21.63
2022-08-26T04:34:36.091Z,21.52
2022-08-26T04:35:40.600Z,21.60
2022-08-26T04:36:46.273Z,21.56
2022-08-26T04:37:51.575Z,21.66
2022-08-26T04:38:57.428Z,21.65
2022-08-26T04:40:00.933Z,21.62
2022-08-26T04:41:05.424Z,21.65
2022-08-26T04:42:09.147Z,21.63
2022-08-26T04:43:16.701Z,21.59
2022-08-26T04:44:21.797Z,21.63
2022-08-26T04:45:26.973Z,21.68
2022-08-26T04:46:32.805Z,21.78
2022-08-26T04:47:38.625Z,21.84
2022-08-26T04:48:41.837Z,21.94
2022-08-26T04:49:47.359Z,21.86
2022-08-26T04:50:50.820Z,21.94
2022-08-26T04:51:55.018Z,22.12
2022-08-26T04:53:01.602Z,22.13
2022-08-26T04:54:07.907Z,22.12
2022-08-26T04:55:11.853Z,22.03
2022-08-26T04:56:15.497Z,22.16
2022-08-26T04:57:19.912Z,22.23
2022-08-26T04:58:26.825Z,22.33
2022-08-26T04:59:30.129Z,22.44
2022-08-26T05:00:37.870Z,22.55
2022-08-26T05:01:49.454Z,22.98
2022-08-26T05:02:53.908Z,23.18
2022-08-26T05:03:59.774Z,23.29
2022-08-26T05:05:06.050Z,23.45
2022-08-26T05:06:12.828Z,24.11
2022-08-26T05:07:17.679Z,24.59
2022-08-26T05:08:22.274Z,25.30
2022-08-26T05:09:30.643Z,26.75
2022-08-26T05:10:34.637Z,27.62
2022-08-26T05:11:39.001Z,28.39
2022-08-26T05:12:44.366Z,28.18
2022-08-26T05:13:52.604Z,27.48
2022-08-26T05:14:56.799Z,26.54
2022-08-26T05:16:13.213Z,25.89
2022-08-26T05:17:17.496Z,25.52
2022-08-26T05:18:25.313Z,25.20
2022-08-26T05:19:30.719Z,25.38
2022-08-26T05:20:46.935Z,25.47
2022-08-26T05:21:50.733Z,25.32
2022-08-26T05:22:55.734Z,25.12
2022-08-26T05:23:59.619Z,24.98
2022-08-26T05:25:04.208Z,24.98
2022-08-26T05:26:09.342Z,24.99
2022-08-26T05:27:14.724Z,24.75
2022-08-26T05:28:22.737Z,24.76
2022-08-26T05:29:25.772Z,24.84
2022-08-26T05:30:33.076Z,24.63
2022-08-26T05:31:41.109Z,24.82
2022-08-26T05:32:46.022Z,24.90
2022-08-26T05:33:50.405Z,25.01
2022-08-26T05:34:58.584Z,25.13
2022-08-26T05:36:11.863Z,25.37
2022-08-26T05:37:20.461Z,25.54
2022-08-26T05:38:24.662Z,25.77
2022-08-26T05:39:34.020Z,25.84
2022-08-26T05:40:45.662Z,25.85
2022-08-26T05:41:49.421Z,25.69
2022-08-26T05:42:55.453Z,25.58
2022-08-26T05:44:04.288Z,25.68
2022-08-26T05:45:14.577Z,25.76
2022-08-26T05:46:20.257Z,25.96
2022-08-26T05:47:25.489Z,25.69
2022-08-26T05:48:31.756Z,25.78
2022-08-26T05:49:35.536Z,25.89
2022-08-26T05:50:47.650Z,26.02
2022-08-26T05:51:51.425Z,25.97
2022-08-26T05:52:55.172Z,25.89
2022-08-26T05:53:59.241Z,25.75
2022-08-26T05:55:02.986Z,25.85
2022-08-26T05:56:08.953Z,25.95
2022-08-26T05:57:14.507Z,25.99
2022-08-26T05:58:22.692Z,26.07
2022-08-26T05:59:27.481Z,26.28
2022-08-26T06:00:30.706Z,26.53
2022-08-26T06:01:35.691Z,26.40
2022-08-26T06:02:40.050Z,26.60
2022-08-26T06:03:51.511Z,26.99
2022-08-26T06:04:59.029Z,27.06
2022-08-26T06:06:09.742Z,26.97
2022-08-26T06:07:14.471Z,26.91
2022-08-26T06:08:20.512Z,26.81
2022-08-26T06:09:27.272Z,26.80
2022-08-26T06:10:32.919Z,27.03
2022-08-26T06:11:36.119Z,27.50
2022-08-26T06:12:39.096Z,27.38
2022-08-26T06:13:47.018Z,27.22
2022-08-26T06:14:51.175Z,27.16
2022-08-26T06:15:55.713Z,27.22
2022-08-26T06:17:01.730Z,27.27
2022-08-26T06:18:05.758Z,27.24
2022-08-26T06:19:11.618Z,27.10
2022-08-26T06:20:17.411Z,27.22
2022-08-26T06:21:29.352Z,27.11
2022-08-26T06:22:50.547Z,27.12
2022-08-26T06:24:15.988Z,27.19
2022-08-26T06:25:37.106Z,27.63
2022-08-26T06:26:46.705Z,28.01
2022-08-26T06:27:51.952Z,27.94
2022-08-26T06:28:56.639Z,27.86
2022-08-26T06:29:59.103Z,27.75
2022-08-26T06:31:03.952Z,27.91
2022-08-26T06:32:07.092Z,28.06
2022-08-26T06:33:13.759Z,27.81
2022-08-26T06:34:21.500Z,27.98
2022-08-26T06:35:24.490Z,27.98
2022-08-26T06:36:35.063Z,28.23
2022-08-26T06:37:41.498Z,28.38
2022-08-26T06:38:44.501Z,28.56
2022-08-26T06:39:48.336Z,28.29
2022-08-26T06:40:59.763Z,28.16
2022-08-26T06:42:06.174Z,28.36
2022-08-26T06:43:11.117Z,28.66
2022-08-26T06:44:16.335Z,28.66
2022-08-26T06:45:21.304Z,29.24
2022-08-26T06:46:33.126Z,29.81
2022-08-26T06:47:37.236Z,30.42
2022-08-26T06:48:40.313Z,32.47
2022-08-26T06:49:46.889Z,34.16
2022-08-26T06:50:51.924Z,35.28
2022-08-26T06:52:00.002Z,36.68
2022-08-26T06:53:04.217Z,37.61
2022-08-26T06:54:09.059Z,37.61
2022-08-26T06:55:14.743Z,38.32
2022-08-26T06:56:22.879Z,38.74
2022-08-26T06:57:31.687Z,39.00
2022-08-26T06:58:41.061Z,39.64
2022-08-26T06:59:44.944Z,40.44
2022-08-26T07:00:48.026Z,40.88
2022-08-26T07:01:52.060Z,41.37
2022-08-26T07:02:58.456Z,41.58
2022-08-26T07:04:07.921Z,42.03
2022-08-26T07:05:11.018Z,42.47
2022-08-26T07:06:17.760Z,42.86
2022-08-26T07:07:23.079Z,42.69
2022-08-26T07:08:27.594Z,43.09
2022-08-26T07:09:32.114Z,43.58
2022-08-26T07:10:39.860Z,43.45
2022-08-26T07:11:48.335Z,43.63
2022-08-26T07:12:53.344Z,44.04
2022-08-26T07:13:58.382Z,44.16
2022-08-26T07:15:03.033Z,44.17
2022-08-26T07:16:13.211Z,44.69
2022-08-26T07:17:16.542Z,44.50
2022-08-26T07:18:19.261Z,44.45
2022-08-26T07:19:30.814Z,43.52
2022-08-26T07:20:34.372Z,44.09
2022-08-26T07:21:37.430Z,43.84
2022-08-26T07:22:42.511Z,43.50
2022-08-26T07:23:49.721Z,43.76
2022-08-26T07:24:52.686Z,43.65
2022-08-26T07:25:56.156Z,44.03
2022-08-26T07:27:03.933Z,44.61
2022-08-26T07:28:09.502Z,44.73
2022-08-26T07:29:14.494Z,44.02
2022-08-26T07:30:21.762Z,44.60
2022-08-26T07:31:36.076Z,44.92
2022-08-26T07:32:37.621Z,44.75
2022-08-26T07:33:42.243Z,44.58
2022-08-26T07:34:46.445Z,44.15
2022-08-26T07:35:53.184Z,43.24
2022-08-26T07:36:56.486Z,43.39
2022-08-26T07:38:01.608Z,44.02
2022-08-26T07:39:07.143Z,44.07
2022-08-26T07:40:12.215Z,43.94
2022-08-26T07:41:17.826Z,43.87
2022-08-26T07:42:24.401Z,43.29
2022-08-26T07:43:30.516Z,43.27
2022-08-26T07:44:33.967Z,44.00
2022-08-26T07:45:37.064Z,42.94
2022-08-26T07:46:44.153Z,42.14
2022-08-26T07:47:51.130Z,42.54
2022-08-26T07:48:55.199Z,43.38
2022-08-26T07:49:59.328Z,43.57
2022-08-26T07:51:06.086Z,43.63
2022-08-26T07:52:10.305Z,43.93
2022-08-26T07:53:15.618Z,44.44
2022-08-26T07:54:26.900Z,44.31
2022-08-26T07:55:28.297Z,44.37
2022-08-26T07:56:33.072Z,43.70
2022-08-26T07:57:37.822Z,43.38
2022-08-26T07:58:44.959Z,42.65
2022-08-26T07:59:48.578Z,42.19
2022-08-26T08:00:53.494Z,42.17
2022-08-26T08:01:59.167Z,41.87
2022-08-26T08:03:09.417Z,41.75
2022-08-26T08:04:16.389Z,42.44
2022-08-26T08:05:27.188Z,43.13
2022-08-26T08:06:30.959Z,43.56
2022-08-26T08:07:44.177Z,43.62
2022-08-26T08:08:41.491Z,43.18
2022-08-26T08:09:46.391Z,43.21
2022-08-26T08:10:50.051Z,42.50
2022-08-26T08:11:54.030Z,42.09
2022-08-26T08:13:03.583Z,41.92
2022-08-26T08:14:11.825Z,41.55
2022-08-26T08:15:21.978Z,41.51
2022-08-26T08:16:33.469Z,40.89
2022-08-26T08:17:38.385Z,40.96
2022-08-26T08:18:42.077Z,40.75
2022-08-26T08:19:45.748Z,40.04
2022-08-26T08:21:04.791Z,39.76
2022-08-26T08:21:54.953Z,39.38
2022-08-26T08:22:59.884Z,39.59
2022-08-26T08:24:05.429Z,39.75
2022-08-26T08:25:10.865Z,39.31
2022-08-26T08:26:15.237Z,39.08
2022-08-26T08:27:24.466Z,38.93
2022-08-26T08:28:30.754Z,38.37
2022-08-26T08:29:40.355Z,38.30
2022-08-26T08:30:44.161Z,38.53
2022-08-26T08:31:57.025Z,38.88
2022-08-26T08:32:58.899Z,38.41
2022-08-26T08:34:06.575Z,37.70
2022-08-26T08:35:13.217Z,37.69
2022-08-26T08:36:18.481Z,38.19
2022-08-26T08:37:23.394Z,37.99
2022-08-26T08:38:28.249Z,37.85
2022-08-26T08:39:32.911Z,38.08
2022-08-26T08:40:41.312Z,37.91
2022-08-26T08:42:05.787Z,37.74
2022-08-26T08:43:37.799Z,37.62
2022-08-26T08:44:51.888Z,37.77
2022-08-26T08:46:01.982Z,38.25
2022-08-26T08:47:17.639Z,38.95
2022-08-26T08:48:35.458Z,37.81
2022-08-26T08:49:40.248Z,37.43
2022-08-26T08:50:48.745Z,37.53
2022-08-26T08:52:13.532Z,37.74
2022-08-26T08:53:36.514Z,37.41
2022-08-26T08:54:42.833Z,37.28
2022-08-26T08:56:26.418Z,37.37
2022-08-26T08:57:46.932Z,37.57
2022-08-26T08:59:00.680Z,37.41
2022-08-26T09:00:09.991Z,37.69
2022-08-26T09:02:38.082Z,37.90
2022-08-26T09:03:57.919Z,38.17
2022-08-26T09:05:14.947Z,38.07
2022-08-26T09:06:21.949Z,37.65
2022-08-26T09:07:44.373Z,37.41
2022-08-26T09:08:54.725Z,37.03
2022-08-26T09:10:03.338Z,37.27
2022-08-26T09:11:07.031Z,37.85
2022-08-26T09:12:14.177Z,38.13
2022-08-26T09:13:25.404Z,37.44
2022-08-26T09:14:27.280Z,37.30
2022-08-26T09:15:57.952Z,37.26
2022-08-26T09:17:17.636Z,37.51
2022-08-26T09:19:49.858Z,36.93
2022-08-26T09:21:05.546Z,37.14
2022-08-26T09:22:09.870Z,37.05
2022-08-26T09:23:14.411Z,36.98
2022-08-26T09:24:18.253Z,37.17
2022-08-26T09:25:22.316Z,36.43
2022-08-26T09:26:35.524Z,36.47
2022-08-26T09:27:53.533Z,36.46
2022-08-26T09:29:03.627Z,35.98
2022-08-26T09:30:11.499Z,36.09
2022-08-26T09:31:36.470Z,36.40
2022-08-26T09:34:29.660Z,35.91
2022-08-26T09:36:55.161Z,36.39
2022-08-26T09:38:01.651Z,36.64
2022-08-26T09:39:08.475Z,37.03
2022-08-26T09:40:34.828Z,37.36
2022-08-26T09:41:36.606Z,36.62
2022-08-26T09:42:41.167Z,36.42
2022-08-26T09:44:06.047Z,36.79
2022-08-26T09:45:12.511Z,36.92
2022-08-26T09:46:21.271Z,36.95
2022-08-26T09:47:28.950Z,37.11
2022-08-26T09:48:36.630Z,36.39
2022-08-26T09:49:42.168Z,36.70
2022-08-26T09:51:01.394Z,35.67
2022-08-26T09:52:23.539Z,35.93
2022-08-26T09:53:39.647Z,36.62
2022-08-26T09:54:51.334Z,37.14
2022-08-26T09:56:15.807Z,36.54
2022-08-26T09:58:40.336Z,35.79
2022-08-26T09:59:46.224Z,35.68
2022-08-26T10:00:58.518Z,35.83
2022-08-26T10:02:20.393Z,35.82
2022-08-26T10:03:31.623Z,36.04
2022-08-26T10:04:33.878Z,35.95
2022-08-26T10:05:47.175Z,35.26
2022-08-26T10:07:09.313Z,35.58
2022-08-26T10:08:23.896Z,35.81
2022-08-26T10:09:29.824Z,35.97
2022-08-26T10:10:45.751Z,36.01
2022-08-26T10:11:56.604Z,35.95
2022-08-26T10:13:07.663Z,35.71
2022-08-26T10:14:30.883Z,35.98
2022-08-26T10:15:41.312Z,36.22
2022-08-26T10:16:54.890Z,36.56
2022-08-26T10:18:06.911Z,36.07
2022-08-26T10:19:17.741Z,36.10
2022-08-26T10:20:25.541Z,36.04
2022-08-26T10:21:33.648Z,36.12
2022-08-26T10:22:54.866Z,35.69
2022-08-26T10:24:02.317Z,35.00
2022-08-26T10:25:09.239Z,35.40
2022-08-26T10:26:17.009Z,35.56
2022-08-26T10:27:25.551Z,35.76
2022-08-26T10:28:51.040Z,35.99
2022-08-26T10:30:13.143Z,36.35
2022-08-26T10:31:38.161Z,36.24
2022-08-26T10:32:46.433Z,36.37
2022-08-26T10:33:52.529Z,36.68
2022-08-26T10:35:00.079Z,36.52
2022-08-26T10:36:08.708Z,35.54
2022-08-26T10:37:22.934Z,35.43
2022-08-26T10:38:38.377Z,35.39
2022-08-26T10:39:58.544Z,35.79
2022-08-26T10:41:18.229Z,35.58
2022-08-26T10:42:23.794Z,35.36
2022-08-26T10:43:31.361Z,35.19
2022-08-26T10:44:40.222Z,35.26
2022-08-26T10:45:51.002Z,34.98
2022-08-26T10:47:01.144Z,34.90
2022-08-26T10:49:18.947Z,35.49
2022-08-26T10:50:29.796Z,35.34
2022-08-26T10:51:38.985Z,35.40
2022-08-26T10:52:48.952Z,35.24
2022-08-26T10:54:03.738Z,35.17
2022-08-26T10:55:11.143Z,34.72
2022-08-26T10:56:41.372Z,35.07
2022-08-26T10:57:55.225Z,35.39
2022-08-26T10:59:17.435Z,35.36
2022-08-26T11:00:43.886Z,35.29
2022-08-26T11:02:03.945Z,34.70
2022-08-26T11:03:31.025Z,34.77
2022-08-26T11:04:54.139Z,34.97
2022-08-26T11:06:20.703Z,34.54
2022-08-26T11:07:39.802Z,34.63
2022-08-26T11:09:02.627Z,34.94
2022-08-26T11:10:17.791Z,35.40
2022-08-26T11:11:43.094Z,34.69
2022-08-26T11:12:53.472Z,35.13
2022-08-26T11:13:58.220Z,35.18
2022-08-26T11:15:02.974Z,34.84
2022-08-26T11:16:12.296Z,34.73
2022-08-26T11:17:20.113Z,34.42
2022-08-26T11:18:39.480Z,34.42
2022-08-26T11:20:01.954Z,34.42
2022-08-26T11:21:05.550Z,34.56
2022-08-26T11:22:33.246Z,33.79
2022-08-26T11:23:41.773Z,34.04
2022-08-26T11:24:47.990Z,34.42
2022-08-26T11:26:01.420Z,34.59
2022-08-26T11:27:09.262Z,34.70
2022-08-26T11:28:17.724Z,34.72
2022-08-26T11:29:43.056Z,34.84
2022-08-26T11:30:56.806Z,34.81
2022-08-26T11:31:58.075Z,34.79
2022-08-26T11:33:01.971Z,35.12
2022-08-26T11:34:10.777Z,35.03
2022-08-26T11:35:20.694Z,34.76
2022-08-26T11:37:51.776Z,34.35
2022-08-26T11:38:55.238Z,34.41
2022-08-26T11:39:59.094Z,34.62
2022-08-26T11:41:13.256Z,34.74
2022-08-26T11:42:33.013Z,34.44
2022-08-26T11:43:38.951Z,34.54
2022-08-26T11:44:49.433Z,34.58
2022-08-26T11:46:01.452Z,34.43
2022-08-26T11:47:11.402Z,34.58
2022-08-26T11:48:23.861Z,34.60
2022-08-26T11:49:29.601Z,34.91
2022-08-26T11:50:33.937Z,34.54
2022-08-26T11:51:40.845Z,34.62
2022-08-26T11:53:06.122Z,34.75
2022-08-26T11:54:17.662Z,34.57
2022-08-26T11:55:27.816Z,34.87
2022-08-26T11:56:35.019Z,34.62
2022-08-26T11:57:55.566Z,34.58
2022-08-26T11:59:01.665Z,34.56
2022-08-26T12:00:13.560Z,34.18
2022-08-26T12:02:42.604Z,34.04
2022-08-26T12:03:50.198Z,34.29
2022-08-26T12:04:55.439Z,34.21
2022-08-26T12:06:00.082Z,34.32
2022-08-26T12:07:05.573Z,34.55
2022-08-26T12:08:15.560Z,34.54
2022-08-26T12:10:38.789Z,34.13
2022-08-26T12:11:42.609Z,34.07
2022-08-26T12:12:52.402Z,34.39
2022-08-26T12:13:59.439Z,34.01
2022-08-26T12:15:19.014Z,34.08
2022-08-26T12:16:29.899Z,33.78
2022-08-26T12:17:33.273Z,33.62
2022-08-26T12:18:44.794Z,33.61
2022-08-26T12:19:51.183Z,33.72
2022-08-26T12:20:58.083Z,33.65
2022-08-26T12:22:05.435Z,33.51
2022-08-26T12:23:09.586Z,33.83
2022-08-26T12:24:17.392Z,33.53
2022-08-26T12:25:25.942Z,33.51
2022-08-26T12:26:34.677Z,33.19
2022-08-26T12:27:44.839Z,33.28
2022-08-26T12:28:52.441Z,33.29
2022-08-26T12:30:14.059Z,33.53
2022-08-26T12:31:31.669Z,33.57
2022-08-26T12:32:57.290Z,33.76
2022-08-26T12:33:51.238Z,33.76
2022-08-26T12:34:57.003Z,33.98
2022-08-26T12:36:02.986Z,33.97
2022-08-26T12:37:10.669Z,33.64
2022-08-26T12:38:13.661Z,33.84
2022-08-26T12:39:30.265Z,34.04
2022-08-26T12:40:39.644Z,34.03
2022-08-26T12:41:46.536Z,33.65
2022-08-26T12:42:50.107Z,33.91
2022-08-26T12:43:58.568Z,34.04
2022-08-26T12:45:07.305Z,33.85
2022-08-26T12:46:17.176Z,33.90
2022-08-26T12:47:42.752Z,33.63
2022-08-26T12:48:42.934Z,33.69
2022-08-26T12:49:46.172Z,33.32
2022-08-26T12:50:53.845Z,33.51
2022-08-26T12:51:57.661Z,33.51
2022-08-26T12:53:04.809Z,33.02
2022-08-26T12:54:13.101Z,33.15
2022-08-26T12:55:30.704Z,33.47
2022-08-26T12:56:41.239Z,33.26
2022-08-26T12:57:50.124Z,33.27
2022-08-26T12:59:13.469Z,33.53
2022-08-26T13:00:28.529Z,33.60
2022-08-26T13:01:44.466Z,33.45
2022-08-26T13:02:47.903Z,33.32
2022-08-26T13:03:51.573Z,33.45
2022-08-26T13:05:00.847Z,33.47
2022-08-26T13:06:20.978Z,33.77
2022-08-26T13:07:28.431Z,33.44
2022-08-26T13:09:44.986Z,33.61
2022-08-26T13:10:52.639Z,33.75
2022-08-26T13:11:58.924Z,33.53
2022-08-26T13:13:01.647Z,33.68
2022-08-26T13:14:18.320Z,33.73
2022-08-26T13:15:19.908Z,33.50
2022-08-26T13:16:28.847Z,33.79
2022-08-26T13:17:35.034Z,33.81
2022-08-26T13:18:40.965Z,33.40
2022-08-26T13:19:44.553Z,33.15
2022-08-26T13:20:47.645Z,33.18
2022-08-26T13:21:55.229Z,33.40
2022-08-26T13:23:01.139Z,33.53
2022-08-26T13:24:07.630Z,33.59
2022-08-26T13:25:10.618Z,33.54
2022-08-26T13:26:16.255Z,33.38
2022-08-26T13:27:21.759Z,33.40
2022-08-26T13:28:28.505Z,33.64
2022-08-26T13:29:31.906Z,33.46
2022-08-26T13:30:37.446Z,33.67
2022-08-26T13:31:45.331Z,33.71
2022-08-26T13:32:50.605Z,33.37
2022-08-26T13:33:55.948Z,33.73
2022-08-26T13:35:05.790Z,33.78
2022-08-26T13:36:06.796Z,33.99
2022-08-26T13:37:12.129Z,34.04
2022-08-26T13:38:22.322Z,34.05
2022-08-26T13:39:25.859Z,34.02
2022-08-26T13:40:34.317Z,33.76
2022-08-26T13:41:38.886Z,33.65
2022-08-26T13:42:49.525Z,33.83
2022-08-26T13:43:52.618Z,34.13
2022-08-26T13:44:57.548Z,34.07
2022-08-26T13:46:04.207Z,33.56
2022-08-26T13:47:08.267Z,33.91
2022-08-26T13:48:20.296Z,33.78
2022-08-26T13:49:22.417Z,33.59
2022-08-26T13:50:28.293Z,33.80
2022-08-26T13:51:33.008Z,34.00
2022-08-26T13:52:38.244Z,34.33
2022-08-26T13:53:41.728Z,34.13
2022-08-26T13:54:46.379Z,34.17
2022-08-26T13:55:52.982Z,34.10
2022-08-26T13:56:55.970Z,33.87
2022-08-26T13:58:02.679Z,33.68
2022-08-26T13:59:05.795Z,33.44
2022-08-26T14:00:13.381Z,33.46
2022-08-26T14:01:18.588Z,33.50
2022-08-26T14:02:25.403Z,33.51
2022-08-26T14:03:29.511Z,33.30
2022-08-26T14:04:33.700Z,33.33
2022-08-26T14:05:37.756Z,33.47
2022-08-26T14:06:41.110Z,33.63
2022-08-26T14:07:43.820Z,33.62
2022-08-26T14:08:50.383Z,33.69
2022-08-26T14:09:54.694Z,33.65
2022-08-26T14:10:58.893Z,33.58
2022-08-26T14:12:03.816Z,33.30
2022-08-26T14:13:09.172Z,33.45
2022-08-26T14:14:11.866Z,33.13
2022-08-26T14:15:16.683Z,32.98
2022-08-26T14:16:24.738Z,33.06
2022-08-26T14:17:30.720Z,32.83
2022-08-26T14:18:42.559Z,32.59
2022-08-26T14:19:48.842Z,32.70
2022-08-26T14:22:06.816Z,33.32
2022-08-26T14:23:13.955Z,33.11
2022-08-26T14:24:16.865Z,32.96
2022-08-26T14:25:25.752Z,32.56
2022-08-26T14:26:30.593Z,32.46
2022-08-26T14:27:37.465Z,32.42
2022-08-26T14:28:42.613Z,32.48
2022-08-26T14:29:47.608Z,32.64
2022-08-26T14:30:56.624Z,32.70
2022-08-26T14:32:05.303Z,32.58
2022-08-26T14:33:16.944Z,32.60
2022-08-26T14:34:20.657Z,32.51
2022-08-26T14:35:28.865Z,32.43
2022-08-26T14:36:33.893Z,32.35
2022-08-26T14:37:40.603Z,32.36
2022-08-26T14:38:43.476Z,32.47
2022-08-26T14:41:04.311Z,32.44
2022-08-26T14:42:10.640Z,32.42
2022-08-26T14:43:17.054Z,32.38
2022-08-26T14:44:21.111Z,32.34
2022-08-26T14:45:30.134Z,32.24
2022-08-26T14:46:39.115Z,32.27
2022-08-26T14:47:42.143Z,32.14
2022-08-26T14:48:46.442Z,32.19
2022-08-26T14:49:52.627Z,32.09
2022-08-26T14:50:56.303Z,32.18
2022-08-26T14:52:00.551Z,32.09
2022-08-26T14:53:22.133Z,32.02
2022-08-26T14:54:28.186Z,32.30
2022-08-26T14:55:36.375Z,32.34
2022-08-26T14:57:03.391Z,32.25
2022-08-26T14:58:07.426Z,32.14
2022-08-26T14:59:13.511Z,32.39